Time;durP1;ratioP1;P1;durP2;ratioP2;P2;SDS_P1;SDS_P2;PMS_P1;PMS_P2;Temp;Humidity;BMP_temperature;BMP_pressure;BME280_temperature;BME280_humidity;BME280_pressure;Samples;Min_cycle;Max_cycle;Signal;HPM_P1;HPM_P2
2023/08/12 00:02:01;;;;;;;;;13.50;13.00;;;;;20.01;100.00;99357.66;6298191;27;96440;-64
2023/08/12 00:05:05;;;;;;;;;15.00;14.00;;;;;19.97;100.00;99351.09;6294213;27;96824;-64
2023/08/12 00:08:08;;;;;;;;;15.00;13.00;;;;;19.91;100.00;99354.91;6315894;27;96370;-64
2023/08/12 00:11:13;;;;;;;;;14.00;12.80;;;;;19.82;100.00;99359.28;6316478;27;97045;-64
2023/08/12 00:14:16;;;;;;;;;12.00;12.00;;;;;19.76;100.00;99357.63;6316297;27;96362;-64
2023/08/12 00:17:19;;;;;;;;;13.00;12.00;;;;;19.73;100.00;99341.75;6316638;27;96730;-64
2023/08/12 00:20:22;;;;;;;;;12.40;12.00;;;;;19.68;100.00;99341.75;6305848;27;96459;-64
2023/08/12 00:23:25;;;;;;;;;14.00;13.25;;;;;19.64;100.00;99346.13;6290675;27;96764;-64
2023/08/12 00:26:30;;;;;;;;;12.00;11.00;;;;;19.60;100.00;99342.25;6296900;27;98469;-64
2023/08/12 00:29:34;;;;;;;;;12.75;12.00;;;;;19.56;100.00;99343.88;6291164;27;96375;-64
2023/08/12 00:32:37;;;;;;;;;16.00;12.80;;;;;19.52;100.00;99337.31;6298242;27;96741;-64
2023/08/12 00:35:40;;;;;;;;;10.60;10.60;;;;;19.47;100.00;99332.66;6316552;27;96347;-64
2023/08/12 00:38:43;;;;;;;;;15.00;14.00;;;;;19.35;100.00;99326.56;6290047;27;96396;-64
2023/08/12 00:41:48;;;;;;;;;11.75;11.50;;;;;19.41;100.00;99339.16;6301919;27;97568;-64
2023/08/12 00:44:51;;;;;;;;;10.60;9.20;;;;;19.41;100.00;99336.41;6285455;27;96798;-64
2023/08/12 00:47:54;;;;;;;;;12.20;11.00;;;;;19.41;100.00;99337.25;6321031;27;96376;-64
2023/08/12 00:50:57;;;;;;;;;12.60;12.00;;;;;19.38;100.00;99332.31;6299964;27;96851;-64
2023/08/12 00:54:03;;;;;;;;;13.00;13.00;;;;;19.30;100.00;99332.03;6312112;27;96258;-64
2023/08/12 00:57:08;;;;;;;;;12.00;11.00;;;;;19.20;100.00;99334.72;6296333;27;96439;-64
2023/08/12 01:00:13;;;;;;;;;13.00;12.60;;;;;19.16;100.00;99328.13;6302844;27;96438;-64
2023/08/12 01:03:16;;;;;;;;;10.80;10.40;;;;;19.13;100.00;99321.28;6295387;27;96685;-64
2023/08/12 01:06:20;;;;;;;;;10.50;10.00;;;;;19.10;100.00;99330.03;6319517;27;96282;-64
2023/08/12 01:09:23;;;;;;;;;12.00;12.00;;;;;19.02;100.00;99323.16;6290348;27;96350;-64
2023/08/12 01:12:32;;;;;;;;;11.40;11.40;;;;;19.01;100.00;99326.13;6319892;27;96326;-64
2023/08/12 01:15:37;;;;;;;;;13.80;13.20;;;;;18.93;100.00;99322.00;6318017;27;98721;-64
2023/08/12 01:18:41;;;;;;;;;11.50;10.00;;;;;18.86;100.00;99326.09;6290626;27;96356;-64
2023/08/12 01:21:46;;;;;;;;;12.60;12.00;;;;;18.81;100.00;99321.41;6319496;27;97297;-64
2023/08/12 01:24:52;;;;;;;;;14.20;13.40;;;;;18.79;100.00;99322.75;6304766;27;96378;-64
2023/08/12 01:27:56;;;;;;;;;17.20;13.80;;;;;18.70;100.00;99322.44;6277686;27;96788;-64
2023/08/12 01:31:10;;;;;;;;;13.50;12.00;;;;;18.64;100.00;99322.66;6292945;27;96117;-64
2023/08/12 01:34:20;;;;;;;;;12.40;12.20;;;;;18.59;100.00;99324.28;6300633;27;99521;-64
2023/08/12 01:37:27;;;;;;;;;14.60;13.40;;;;;18.59;100.00;99324.28;6283177;27;96710;-64
2023/08/12 01:40:33;;;;;;;;;14.40;13.00;;;;;18.57;100.00;99329.16;6308479;27;97241;-64
2023/08/12 01:43:36;;;;;;;;;15.00;14.00;;;;;18.55;100.00;99319.59;6313364;27;96873;-64
2023/08/12 01:46:40;;;;;;;;;14.00;12.00;;;;;18.53;100.00;99324.47;6292851;27;96305;-64
2023/08/12 01:49:43;;;;;;;;;13.80;13.00;;;;;18.50;100.00;99330.47;6277015;27;96735;-64
2023/08/12 01:52:46;;;;;;;;;16.00;14.00;;;;;18.43;100.00;99333.41;6318588;27;96497;-64
2023/08/12 01:55:53;;;;;;;;;16.40;15.40;;;;;18.40;100.00;99327.66;6318712;27;96419;-64
2023/08/12 01:58:56;;;;;;;;;16.00;14.00;;;;;18.34;100.00;99325.97;6328758;27;96435;-64
2023/08/12 02:01:59;;;;;;;;;15.00;15.00;;;;;18.25;100.00;99324.81;6299883;27;96428;-64
2023/08/12 02:05:02;;;;;;;;;17.25;15.25;;;;;18.25;100.00;99325.63;6317779;27;96391;-64
2023/08/12 02:08:06;;;;;;;;;16.40;15.40;;;;;18.22;100.00;99330.78;6317415;27;96587;-64
2023/08/12 02:11:12;;;;;;;;;14.00;14.00;;;;;18.22;100.00;99342.53;6291438;27;96927;-64
2023/08/12 02:14:15;;;;;;;;;15.00;15.00;;;;;18.21;100.00;99337.31;6294034;27;96375;-64
2023/08/12 02:17:18;;;;;;;;;13.00;13.00;;;;;18.19;100.00;99340.31;6300355;27;96393;-64
2023/08/12 02:20:22;;;;;;;;;14.00;13.00;;;;;18.18;100.00;99339.47;6316968;27;96877;-64
2023/08/12 02:23:25;;;;;;;;;12.40;12.00;;;;;18.16;100.00;99335.38;6314300;27;96353;-64
2023/08/12 02:26:29;;;;;;;;;13.00;13.00;;;;;18.11;100.00;99332.59;6278702;27;96366;-64
2023/08/12 02:29:34;;;;;;;;;13.60;13.00;;;;;18.07;100.00;99336.94;6301203;27;96357;-65
2023/08/12 02:32:37;;;;;;;;;12.00;11.20;;;;;17.97;100.00;99343.13;6318190;27;96273;-64
2023/08/12 02:35:40;;;;;;;;;12.75;12.00;;;;;17.90;100.00;99339.78;6301386;27;96378;-64
2023/08/12 02:38:45;;;;;;;;;11.80;11.20;;;;;17.86;100.00;99346.00;6289715;27;96254;-64
2023/08/12 02:41:49;;;;;;;;;13.80;12.00;;;;;17.84;100.00;99350.91;6290645;27;96741;-64
2023/08/12 02:44:53;;;;;;;;;13.40;12.00;;;;;17.83;100.00;99347.34;6288594;27;96626;-64
2023/08/12 02:47:56;;;;;;;;;12.00;11.50;;;;;17.83;100.00;99352.00;6317077;27;96341;-65
2023/08/12 02:50:59;;;;;;;;;12.40;11.00;;;;;17.85;100.00;99353.38;6315733;27;96332;-64
2023/08/12 02:54:02;;;;;;;;;14.00;12.40;;;;;17.84;100.00;99350.91;6316862;27;96326;-64
2023/08/12 02:57:07;;;;;;;;;11.00;10.00;;;;;17.83;100.00;99352.81;6290364;27;97354;-64
2023/08/12 03:00:12;;;;;;;;;12.60;11.00;;;;;17.80;100.00;99355.22;6309341;27;96299;-64
2023/08/12 03:03:16;;;;;;;;;13.00;12.00;;;;;17.76;100.00;99354.91;6310690;27;96374;-64
2023/08/12 03:06:19;;;;;;;;;10.25;10.00;;;;;17.74;100.00;99357.88;6298079;27;96270;-64
2023/08/12 03:09:22;;;;;;;;;16.00;14.00;;;;;17.73;100.00;99360.88;6291910;27;96491;-64
2023/08/12 03:12:27;;;;;;;;;15.00;14.00;;;;;17.70;100.00;99358.66;6318245;27;96391;-64
2023/08/12 03:15:30;;;;;;;;;17.50;15.00;;;;;17.64;100.00;99354.25;6297363;27;98421;-65
2023/08/12 03:18:34;;;;;;;;;14.80;13.00;;;;;17.54;100.00;99357.66;6304410;27;96447;-64
2023/08/12 03:21:37;;;;;;;;;14.50;14.00;;;;;17.52;100.00;99367.97;6315882;27;96294;-64
2023/08/12 03:24:40;;;;;;;;;13.00;11.40;;;;;17.54;100.00;99356.81;6298891;27;96426;-64
2023/08/12 03:27:45;;;;;;;;;14.00;12.00;;;;;17.52;100.00;99365.25;6295670;27;96245;-64
2023/08/12 03:30:52;;;;;;;;;12.00;12.00;;;;;17.45;100.00;99361.88;6272473;27;96784;-64
2023/08/12 03:33:58;;;;;;;;;11.00;10.20;;;;;17.46;100.00;99371.72;6297464;27;96236;-64
2023/08/12 03:37:04;;;;;;;;;11.00;11.00;;;;;17.43;100.00;99371.41;6296992;27;96370;-64
2023/08/12 03:40:09;;;;;;;;;14.00;13.40;;;;;17.41;100.00;99377.09;6296234;27;97599;-64
2023/08/12 03:43:15;;;;;;;;;13.00;12.40;;;;;17.43;100.00;99383.13;6297203;27;96635;-64
2023/08/12 03:46:19;;;;;;;;;10.75;10.00;;;;;17.49;100.00;99381.31;6287665;27;96425;-64
2023/08/12 03:49:23;;;;;;;;;13.00;11.80;;;;;17.51;100.00;99376.41;6286749;27;96548;-64
2023/08/12 03:52:26;;;;;;;;;13.75;13.00;;;;;17.53;100.00;99376.97;6294158;27;96739;-64
2023/08/12 03:55:31;;;;;;;;;14.00;13.00;;;;;17.50;100.00;99367.41;6306353;27;96937;-64
2023/08/12 03:58:35;;;;;;;;;13.80;13.00;;;;;17.58;100.00;99377.03;6297840;27;96680;-64
2023/08/12 04:01:39;;;;;;;;;11.40;11.40;;;;;17.57;100.00;99373.50;6293685;27;97789;-64
2023/08/12 04:04:43;;;;;;;;;13.00;12.00;;;;;17.56;100.00;99369.09;6289508;27;96664;-64
2023/08/12 04:07:47;;;;;;;;;12.00;10.33;;;;;17.59;100.00;99363.16;6271899;27;96658;-64
2023/08/12 04:10:51;;;;;;;;;13.00;12.60;;;;;17.67;100.00;99362.72;6310633;27;96231;-64
2023/08/12 04:13:55;;;;;;;;;14.20;13.00;;;;;17.75;100.00;99364.16;6282514;27;96872;-64
2023/08/12 04:16:58;;;;;;;;;11.00;10.60;;;;;17.86;100.00;99363.19;6271225;27;96896;-64
2023/08/12 04:20:05;;;;;;;;;9.60;9.00;;;;;17.93;100.00;99366.56;6297855;27;98412;-64
2023/08/12 04:23:10;;;;;;;;;10.20;9.20;;;;;18.09;100.00;99362.88;6316984;27;96208;-65
2023/08/12 04:26:13;;;;;;;;;11.00;10.00;;;;;18.25;100.00;99365.75;6299679;27;96451;-64
2023/08/12 04:29:18;;;;;;;;;11.00;11.00;;;;;18.45;100.00;99368.63;6290188;27;96999;-64
2023/08/12 04:32:22;;;;;;;;;11.00;10.60;;;;;18.67;100.00;99371.31;6294201;27;96198;-64
2023/08/12 04:35:25;;;;;;;;;10.75;9.00;;;;;18.89;100.00;99364.63;6295347;27;96540;-64
2023/08/12 04:38:29;;;;;;;;;11.00;11.00;;;;;19.13;100.00;99369.66;6294095;27;97324;-65
2023/08/12 04:41:34;;;;;;;;;10.00;9.00;;;;;19.32;100.00;99360.72;6290138;27;96743;-65
2023/08/12 04:44:41;;;;;;;;;9.50;9.00;;;;;19.52;100.00;99362.75;6294108;27;96227;-65
2023/08/12 04:47:44;;;;;;;;;10.00;10.00;;;;;19.69;100.00;99363.38;6294343;27;96826;-65
2023/08/12 04:50:50;;;;;;;;;8.00;8.00;;;;;19.88;100.00;99375.44;6309208;27;96748;-65
2023/08/12 04:53:54;;;;;;;;;8.00;8.00;;;;;20.08;100.00;99376.59;6289430;27;96320;-65
2023/08/12 04:56:57;;;;;;;;;10.00;9.40;;;;;20.22;100.00;99366.72;6276175;27;96747;-64
2023/08/12 05:00:01;;;;;;;;;7.20;6.80;;;;;20.38;100.00;99371.13;6311000;27;97119;-64
2023/08/12 05:03:06;;;;;;;;;7.80;7.80;;;;;20.54;100.00;99381.00;6290526;27;96876;-64
2023/08/12 05:06:09;;;;;;;;;6.75;6.00;;;;;20.70;100.00;99384.56;6309661;27;96610;-65
2023/08/12 05:09:12;;;;;;;;;7.00;7.00;;;;;20.85;100.00;99390.03;6311229;27;96204;-65
2023/08/12 05:12:18;;;;;;;;;8.00;8.00;;;;;20.97;100.00;99386.97;6294445;27;96866;-65
2023/08/12 05:15:22;;;;;;;;;9.00;9.00;;;;;21.10;100.00;99389.16;6282489;27;96867;-64
2023/08/12 05:18:26;;;;;;;;;10.00;9.40;;;;;21.20;100.00;99386.41;6296192;27;96454;-65
2023/08/12 05:21:29;;;;;;;;;7.50;6.50;;;;;21.35;100.00;99380.06;6311576;27;96335;-64
2023/08/12 05:24:33;;;;;;;;;9.60;8.60;;;;;21.44;100.00;99379.19;6299020;27;96417;-64
2023/08/12 05:27:36;;;;;;;;;7.25;5.50;;;;;21.53;100.00;99382.16;6316962;27;97450;-64
2023/08/12 05:30:41;;;;;;;;;7.00;6.00;;;;;21.65;100.00;99382.66;6297615;27;96879;-64
2023/08/12 05:33:44;;;;;;;;;7.00;6.20;;;;;21.79;100.00;99380.94;6314553;27;96207;-64
2023/08/12 05:36:47;;;;;;;;;8.20;7.00;;;;;21.94;100.00;99383.59;6291633;27;98801;-64
2023/08/12 05:39:51;;;;;;;;;7.00;7.00;;;;;22.09;100.00;99390.13;6296916;27;96761;-64
2023/08/12 05:42:54;;;;;;;;;7.00;5.50;;;;;22.19;100.00;99388.13;6317804;27;96220;-65
2023/08/12 05:45:59;;;;;;;;;7.40;7.40;;;;;22.25;100.00;99389.72;6311534;27;96820;-64
2023/08/12 05:49:02;;;;;;;;;8.00;7.40;;;;;22.34;100.00;99385.25;6315636;27;96396;-64
2023/08/12 05:52:06;;;;;;;;;7.00;7.00;;;;;22.40;100.00;99375.06;6313221;27;96575;-65
2023/08/12 05:55:09;;;;;;;;;7.20;7.00;;;;;22.47;100.00;99381.06;6304604;27;96335;-65
2023/08/12 05:58:12;;;;;;;;;7.00;7.00;;;;;22.46;100.00;99365.69;6283360;27;96885;-64
2023/08/12 06:01:17;;;;;;;;;7.00;7.00;;;;;22.79;100.00;99383.25;6316569;27;96354;-65
2023/08/12 06:04:20;;;;;;;;;8.00;6.20;;;;;22.95;100.00;99370.19;6277153;27;98667;-64
2023/08/12 06:07:24;;;;;;;;;7.50;7.00;;;;;23.10;100.00;99376.34;6300964;27;99022;-64
2023/08/12 06:10:27;;;;;;;;;6.00;6.00;;;;;23.23;100.00;99380.31;6319590;27;96292;-64
2023/08/12 06:13:31;;;;;;;;;7.00;7.00;;;;;23.37;100.00;99372.19;6326046;27;96525;-64
2023/08/12 06:16:36;;;;;;;;;9.00;8.20;;;;;23.58;100.00;99365.34;6303501;27;99407;-64
2023/08/12 06:19:39;;;;;;;;;7.00;6.00;;;;;23.68;100.00;99368.78;6321413;27;96292;-65
2023/08/12 06:22:42;;;;;;;;;7.75;7.25;;;;;23.79;100.00;99360.41;6290063;27;96749;-65
2023/08/12 06:25:45;;;;;;;;;8.75;8.00;;;;;23.92;100.00;99371.47;6317368;27;96795;-64
2023/08/12 06:28:48;;;;;;;;;10.00;9.40;;;;;23.94;100.00;99372.00;6295391;27;96698;-64
2023/08/12 06:31:53;;;;;;;;;7.00;7.00;;;;;23.95;100.00;99372.81;6301961;27;98966;-64
2023/08/12 06:34:56;;;;;;;;;7.00;6.00;;;;;24.05;100.00;99367.16;6315414;27;96398;-64
2023/08/12 06:37:59;;;;;;;;;7.60;7.00;;;;;24.23;100.00;99368.31;6319153;27;96396;-64
2023/08/12 06:41:03;;;;;;;;;9.00;8.00;;;;;24.36;100.00;99371.13;6270317;27;96905;-64
2023/08/12 06:44:06;;;;;;;;;8.40;8.00;;;;;24.52;100.00;99367.00;6319120;27;96495;-64
2023/08/12 06:47:11;;;;;;;;;8.40;7.40;;;;;24.59;100.00;99370.16;6301534;27;98553;-64
2023/08/12 06:50:14;;;;;;;;;8.75;7.75;;;;;24.64;100.00;99372.00;6318870;27;96359;-64
2023/08/12 06:53:17;;;;;;;;;9.00;9.00;;;;;24.87;100.00;99376.63;6302117;27;96746;-64
2023/08/12 06:56:20;;;;;;;;;8.50;8.00;;;;;25.08;100.00;99365.19;6282825;27;96800;-64
2023/08/12 06:59:23;;;;;;;;;8.00;7.00;;;;;25.20;100.00;99365.50;6315729;27;97627;-64
2023/08/12 07:02:28;;;;;;;;;6.80;6.20;;;;;25.39;100.00;99361.53;6300461;27;98501;-65
2023/08/12 07:05:34;;;;;;;;;8.00;8.00;;;;;25.72;100.00;99366.94;6299833;27;97271;-64
2023/08/12 07:08:37;;;;;;;;;8.33;7.33;;;;;25.75;100.00;99367.16;6319584;27;96353;-64
2023/08/12 07:11:41;;;;;;;;;10.00;9.80;;;;;25.79;100.00;99367.34;6318600;27;96276;-65
2023/08/12 07:14:44;;;;;;;;;9.00;8.40;;;;;25.90;100.00;99365.16;6319056;27;96912;-64
2023/08/12 07:17:49;;;;;;;;;9.40;9.00;;;;;26.03;100.00;99359.59;6304591;27;96866;-64
2023/08/12 07:20:52;;;;;;;;;9.00;7.00;;;;;26.26;100.00;99366.00;6298766;27;97438;-64
2023/08/12 07:23:55;;;;;;;;;9.40;9.00;;;;;26.34;100.00;99370.75;6318384;27;96343;-63
2023/08/12 07:27:06;;;;;;;;;8.00;7.00;;;;;26.55;100.00;99362.78;6316534;27;96398;-64
2023/08/12 07:30:11;;;;;;;;;9.80;9.00;;;;;26.78;100.00;99361.63;6318494;27;96478;-63
2023/08/12 07:33:15;;;;;;;;;11.00;10.60;;;;;27.12;100.00;99363.81;6307752;27;98476;-64
2023/08/12 07:36:18;;;;;;;;;9.00;9.00;;;;;27.29;100.00;99354.72;6289431;27;96749;-64
2023/08/12 07:39:21;;;;;;;;;9.00;9.00;;;;;27.45;100.00;99367.81;6312054;27;96654;-64
2023/08/12 07:42:25;;;;;;;;;8.00;8.00;;;;;27.64;99.66;99369.53;6300179;27;96691;-63
2023/08/12 07:45:29;;;;;;;;;9.00;8.50;;;;;27.95;100.00;99359.16;6301254;27;96705;-63
2023/08/12 07:48:38;;;;;;;;;9.00;9.00;;;;;28.25;97.02;99365.69;6319195;27;96324;-64
2023/08/12 07:51:42;;;;;;;;;12.00;11.80;;;;;28.28;95.65;99365.06;6317232;27;97251;-64
2023/08/12 07:54:45;;;;;;;;;9.60;8.20;;;;;28.46;95.56;99354.75;6315764;27;96920;-64
2023/08/12 07:57:48;;;;;;;;;8.60;8.00;;;;;28.75;97.31;99357.69;6300093;27;96743;-64
2023/08/12 08:00:53;;;;;;;;;9.00;8.50;;;;;29.11;94.30;99349.72;6315734;27;96296;-64
2023/08/12 08:03:58;;;;;;;;;7.00;7.00;;;;;29.45;93.22;99356.31;6317164;27;96362;-64
2023/08/12 08:07:01;;;;;;;;;9.20;8.00;;;;;29.51;88.82;99346.63;6299987;27;98536;-64
2023/08/12 08:10:06;;;;;;;;;9.00;9.00;;;;;29.68;89.80;99352.88;6317592;27;96658;-64
2023/08/12 08:13:09;;;;;;;;;9.60;8.60;;;;;29.91;91.58;99347.06;6301366;27;98710;-64
2023/08/12 08:16:12;;;;;;;;;9.00;9.00;;;;;30.17;87.71;99353.22;6294642;27;98501;-64
2023/08/12 08:19:17;;;;;;;;;8.40;8.00;;;;;30.30;84.23;99351.31;6283944;27;96600;-64
2023/08/12 08:22:21;;;;;;;;;7.60;7.60;;;;;30.33;79.67;99351.44;6293006;27;97506;-64
2023/08/12 08:25:24;;;;;;;;;10.00;10.00;;;;;30.51;79.99;99347.38;6316811;27;97538;-64
2023/08/12 08:28:27;;;;;;;;;7.50;7.00;;;;;30.62;73.46;99350.53;6318368;27;96393;-64
2023/08/12 08:31:30;;;;;;;;;8.60;7.60;;;;;30.66;74.92;99345.09;6316616;27;96451;-64
2023/08/12 08:34:35;;;;;;;;;8.00;7.40;;;;;30.58;78.20;99340.44;6299856;27;97315;-64
2023/08/12 08:37:38;;;;;;;;;9.00;9.00;;;;;30.62;72.23;99333.84;6298079;27;97221;-65
2023/08/12 08:40:41;;;;;;;;;7.00;6.67;;;;;30.70;70.02;99332.09;6317866;27;96552;-65
2023/08/12 08:43:48;;;;;;;;;8.60;8.00;;;;;30.79;72.25;99339.19;6299468;27;99033;-65
2023/08/12 08:46:53;;;;;;;;;8.00;8.00;;;;;31.01;77.99;99334.38;6315901;27;96315;-64
2023/08/12 08:49:59;;;;;;;;;8.60;8.00;;;;;31.31;72.25;99335.84;6320358;27;96879;-64
2023/08/12 08:53:05;;;;;;;;;8.50;7.00;;;;;31.39;70.14;99323.75;6313789;27;96504;-65
2023/08/12 08:56:11;;;;;;;;;7.00;7.00;;;;;31.60;69.69;99337.59;6302126;27;96817;-65
2023/08/12 08:59:18;;;;;;;;;5.60;5.00;;;;;31.68;54.19;99326.31;6283799;27;96761;-65
2023/08/12 09:02:22;;;;;;;;;7.00;6.00;;;;;31.73;62.43;99337.22;6323307;27;96316;-65
2023/08/12 09:05:27;;;;;;;;;6.20;6.00;;;;;31.93;61.39;99329.84;6299529;27;96395;-64
2023/08/12 09:08:32;;;;;;;;;5.40;5.40;;;;;32.19;59.78;99326.69;6280378;27;98486;-64
2023/08/12 09:11:36;;;;;;;;;6.00;5.80;;;;;32.36;61.87;99320.78;6305173;27;96786;-64
2023/08/12 09:14:39;;;;;;;;;5.60;5.00;;;;;32.41;60.18;99314.94;6305183;27;97127;-64
2023/08/12 09:17:42;;;;;;;;;6.40;6.00;;;;;32.45;59.59;99313.06;6323084;27;96148;-64
2023/08/12 09:20:46;;;;;;;;;8.00;7.40;;;;;32.62;60.10;99315.53;6323314;27;96425;-64
2023/08/12 09:23:50;;;;;;;;;7.00;6.00;;;;;32.89;60.20;99311.09;6325589;27;96376;-65
2023/08/12 09:26:55;;;;;;;;;7.00;7.00;;;;;33.16;59.25;99303.00;6296384;27;99106;-64
2023/08/12 09:30:03;;;;;;;;;9.00;8.00;;;;;33.33;58.12;99314.63;6305104;27;96323;-64
2023/08/12 09:33:08;;;;;;;;;6.60;6.00;;;;;33.41;52.85;99313.63;6323186;27;96347;-64
2023/08/12 09:36:12;;;;;;;;;5.00;4.00;;;;;33.45;53.93;99314.53;6305853;27;96262;-64
2023/08/12 09:39:16;;;;;;;;;7.00;7.00;;;;;33.67;56.57;99312.22;6322209;27;96260;-65
2023/08/12 09:42:20;;;;;;;;;7.00;6.40;;;;;33.98;55.49;99309.34;6321918;27;96322;-65
2023/08/12 09:45:25;;;;;;;;;7.00;7.00;;;;;34.08;51.42;99291.16;6320590;27;96326;-65
2023/08/12 09:48:28;;;;;;;;;7.00;6.00;;;;;33.83;52.67;99304.59;6302996;27;97082;-65
2023/08/12 09:51:36;;;;;;;;;7.00;7.00;;;;;33.83;48.96;99299.00;6298060;27;96368;-65
2023/08/12 09:54:39;;;;;;;;;5.80;5.80;;;;;33.83;49.77;99302.63;6294903;27;97097;-65
2023/08/12 09:57:44;;;;;;;;;6.00;5.80;;;;;33.83;50.63;99299.00;6302685;27;96373;-64
2023/08/12 10:00:49;;;;;;;;;6.00;6.00;;;;;33.73;48.45;99294.00;6301163;27;96715;-64
2023/08/12 10:03:52;;;;;;;;;5.00;5.00;;;;;33.94;55.78;99286.06;6302310;27;98439;-64
2023/08/12 10:06:57;;;;;;;;;9.20;8.00;;;;;34.03;50.66;99288.66;6305999;27;96423;-64
2023/08/12 10:10:01;;;;;;;;;7.00;7.00;;;;;34.16;51.00;99276.16;6320287;27;96338;-65
2023/08/12 10:13:07;;;;;;;;;8.00;8.00;;;;;34.34;49.98;99268.94;6304968;27;96156;-65
2023/08/12 10:16:11;;;;;;;;;7.50;7.00;;;;;34.40;49.24;99280.66;6278527;27;96846;-65
2023/08/12 10:19:18;;;;;;;;;6.00;6.00;;;;;34.51;47.58;99284.44;6314009;27;96328;-65
2023/08/12 10:22:22;;;;;;;;;6.40;6.40;;;;;34.56;46.52;99284.13;6322451;27;96383;-65
2023/08/12 10:25:32;;;;;;;;;8.00;7.00;;;;;34.66;50.29;99278.72;6321602;27;96358;-65
2023/08/12 10:28:37;;;;;;;;;7.00;6.00;;;;;34.83;47.80;99273.88;6309570;27;96241;-65
2023/08/12 10:31:44;;;;;;;;;6.00;6.00;;;;;34.96;48.22;99280.88;6317389;27;96351;-65
2023/08/12 10:34:55;;;;;;;;;5.60;5.60;;;;;35.08;46.78;99273.09;6295632;27;96279;-65
2023/08/12 10:38:00;;;;;;;;;4.20;4.20;;;;;34.85;46.63;99269.50;6319804;27;96366;-65
2023/08/12 10:41:20;;;;;;;;;7.00;6.00;;;;;34.66;44.75;99261.94;6294976;27;96756;-65
2023/08/12 10:44:27;;;;;;;;;7.00;7.00;;;;;34.64;47.95;99257.91;6288497;27;96734;-65
2023/08/12 10:47:32;;;;;;;;;7.00;6.00;;;;;34.26;45.87;99259.56;6297673;27;97136;-64
2023/08/12 10:50:35;;;;;;;;;6.00;6.00;;;;;34.13;44.71;99255.28;6295442;27;96834;-65
2023/08/12 10:53:40;;;;;;;;;7.00;6.00;;;;;33.85;46.36;99244.34;6316754;27;96361;-65
2023/08/12 10:57:07;;;;;;;;;5.00;5.00;;;;;33.60;49.66;99245.75;6294846;27;98501;-64
2023/08/12 11:00:14;;;;;;;;;6.00;6.00;;;;;33.77;51.87;99241.78;6293891;27;98803;-65
2023/08/12 11:03:17;;;;;;;;;6.00;6.00;;;;;34.03;52.61;99232.69;6313574;27;96321;-65
2023/08/12 11:06:20;;;;;;;;;5.00;5.00;;;;;34.26;45.70;99234.38;6303704;27;96314;-64
2023/08/12 11:09:25;;;;;;;;;7.00;6.00;;;;;34.39;48.42;99231.44;6303051;27;96449;-64
2023/08/12 11:12:35;;;;;;;;;6.00;6.00;;;;;34.11;46.56;99231.69;6301196;27;96478;-64
2023/08/12 11:15:41;;;;;;;;;6.00;5.00;;;;;34.00;47.03;99225.88;6319396;27;96374;-64
2023/08/12 11:18:45;;;;;;;;;5.00;5.00;;;;;33.92;51.00;99219.31;6320921;27;96271;-64
2023/08/12 11:21:48;;;;;;;;;5.00;4.00;;;;;33.97;48.51;99220.97;6320755;27;96334;-64
2023/08/12 11:24:54;;;;;;;;;5.00;5.00;;;;;34.15;48.12;99221.34;6294507;27;96295;-64
2023/08/12 11:27:58;;;;;;;;;6.50;6.00;;;;;34.17;46.23;99217.00;6318804;27;96139;-64
2023/08/12 11:31:02;;;;;;;;;5.20;5.00;;;;;34.16;46.07;99218.16;6320083;27;97538;-64
2023/08/12 11:34:06;;;;;;;;;5.00;5.00;;;;;34.38;47.55;99213.00;6302209;27;96356;-64
2023/08/12 11:37:09;;;;;;;;;6.00;6.00;;;;;34.26;45.22;99202.78;6276848;27;96869;-64
2023/08/12 11:40:16;;;;;;;;;5.25;5.25;;;;;34.35;49.93;99215.38;6303311;27;96373;-64
2023/08/12 11:43:22;;;;;;;;;6.00;6.00;;;;;34.45;47.57;99208.38;6320574;27;96386;-64
2023/08/12 11:46:26;;;;;;;;;5.60;5.00;;;;;34.36;45.00;99207.78;6291954;27;96881;-64
2023/08/12 11:49:29;;;;;;;;;5.00;4.00;;;;;34.49;46.06;99205.63;6296867;27;96304;-64
2023/08/12 11:52:33;;;;;;;;;6.00;5.20;;;;;34.73;46.39;99203.28;6299339;27;96887;-64
2023/08/12 11:55:39;;;;;;;;;4.50;4.50;;;;;35.00;50.98;99206.09;6319801;27;96306;-64
2023/08/12 11:58:42;;;;;;;;;4.40;4.40;;;;;35.10;43.65;99192.25;6320385;27;96589;-64
2023/08/12 12:01:55;;;;;;;;;4.75;4.00;;;;;35.16;46.90;99184.31;6298460;27;98429;-64
2023/08/12 12:04:59;;;;;;;;;6.00;6.00;;;;;35.29;44.19;99193.34;6299344;27;96689;-64
2023/08/12 12:08:05;;;;;;;;;5.00;5.00;;;;;35.43;46.54;99188.72;6319657;27;96320;-65
2023/08/12 12:11:09;;;;;;;;;5.00;5.00;;;;;35.56;46.00;99189.31;6276634;27;96872;-64
2023/08/12 12:14:13;;;;;;;;;4.50;4.50;;;;;35.40;41.72;99191.50;6302699;27;96314;-64
2023/08/12 12:17:16;;;;;;;;;3.50;3.00;;;;;35.49;42.62;99183.59;6295000;27;96224;-64
2023/08/12 12:20:21;;;;;;;;;4.00;4.00;;;;;35.76;46.20;99179.59;6319859;27;97035;-64
2023/08/12 12:23:28;;;;;;;;;3.00;3.00;;;;;35.77;40.81;99170.00;6286014;27;98497;-64
2023/08/12 12:26:33;;;;;;;;;5.00;4.00;;;;;35.46;42.28;99173.16;6324874;27;96268;-63
2023/08/12 12:29:36;;;;;;;;;4.40;4.00;;;;;35.50;45.83;99168.41;6323733;27;96308;-63
2023/08/12 12:32:40;;;;;;;;;4.00;3.50;;;;;35.70;43.63;99161.47;6297938;27;99194;-63
2023/08/12 12:35:43;;;;;;;;;2.00;2.00;;;;;35.91;39.44;99161.75;6306376;27;97630;-63
2023/08/12 12:39:00;;;;;;;;;4.00;4.00;;;;;35.85;42.09;99160.47;6306355;27;96841;-63
2023/08/12 12:42:05;;;;;;;;;5.00;4.25;;;;;35.82;35.56;99164.03;6306582;27;96300;-63
2023/08/12 12:45:10;;;;;;;;;3.00;3.00;;;;;35.84;41.32;99155.22;6323187;27;96335;-63
2023/08/12 12:48:13;;;;;;;;;4.60;4.60;;;;;35.97;41.99;99157.38;6295518;27;96715;-63
2023/08/12 12:51:16;;;;;;;;;4.00;4.00;;;;;36.17;39.05;99158.00;6315947;27;96267;-63
2023/08/12 12:54:19;;;;;;;;;4.00;4.00;;;;;36.34;39.55;99154.59;6306343;27;96358;-63
2023/08/12 12:57:24;;;;;;;;;4.00;3.75;;;;;36.33;37.13;99141.72;6298764;27;98640;-63
2023/08/12 13:00:27;;;;;;;;;6.00;5.00;;;;;36.21;39.84;99144.03;6279800;27;96226;-63
2023/08/12 13:03:30;;;;;;;;;5.00;4.60;;;;;36.14;40.41;99135.53;6274796;27;96864;-63
2023/08/12 13:06:34;;;;;;;;;4.00;4.00;;;;;36.20;41.81;99142.41;6297071;27;96988;-63
2023/08/12 13:09:37;;;;;;;;;4.00;4.00;;;;;36.24;40.43;99130.03;6297090;27;96751;-63
2023/08/12 13:12:45;;;;;;;;;4.00;4.00;;;;;36.33;38.22;99138.13;6299622;27;96365;-63
2023/08/12 13:15:48;;;;;;;;;3.00;3.00;;;;;36.34;36.76;99129.31;6286164;27;99088;-63
2023/08/12 13:18:52;;;;;;;;;4.00;3.25;;;;;36.37;40.42;99122.09;6290503;27;96705;-63
2023/08/12 13:21:55;;;;;;;;;5.00;4.00;;;;;36.41;40.17;99131.34;6297826;27;96298;-63
2023/08/12 13:24:58;;;;;;;;;4.60;4.00;;;;;36.25;39.62;99123.22;6297558;27;96330;-63
2023/08/12 13:28:04;;;;;;;;;6.00;5.00;;;;;36.21;44.38;99124.38;6281181;27;97844;-63
2023/08/12 13:31:08;;;;;;;;;4.00;4.00;;;;;36.17;39.26;99126.31;6296844;27;96396;-63
2023/08/12 13:34:11;;;;;;;;;4.25;4.25;;;;;36.17;39.88;99107.47;6279537;27;98339;-63
2023/08/12 13:37:14;;;;;;;;;3.00;3.00;;;;;36.22;42.31;99117.56;6296418;27;96185;-63
2023/08/12 13:40:18;;;;;;;;;3.00;3.00;;;;;36.21;40.45;99107.53;6304905;27;96852;-63
2023/08/12 13:43:23;;;;;;;;;3.00;3.00;;;;;35.96;42.51;99112.88;6294463;27;96305;-63
2023/08/12 13:46:26;;;;;;;;;4.00;4.00;;;;;35.96;46.40;99107.28;6297454;27;96349;-63
2023/08/12 13:49:29;;;;;;;;;4.00;4.00;;;;;36.13;45.73;99108.63;6296993;27;96278;-63
2023/08/12 13:52:32;;;;;;;;;4.75;4.75;;;;;36.18;44.82;99103.50;6293000;27;96416;-63
2023/08/12 13:55:35;;;;;;;;;6.00;5.00;;;;;36.24;41.99;99107.56;6296627;27;98760;-63
2023/08/12 13:58:40;;;;;;;;;5.00;5.00;;;;;36.03;42.13;99110.94;6297325;27;96314;-63
2023/08/12 14:01:43;;;;;;;;;5.00;4.80;;;;;35.99;41.94;99101.69;6293005;27;96356;-63
2023/08/12 14:04:46;;;;;;;;;4.00;4.00;;;;;35.97;41.36;99090.03;6280146;27;98528;-63
2023/08/12 14:07:50;;;;;;;;;5.00;5.00;;;;;35.95;44.47;99095.22;6312984;27;96266;-63
2023/08/12 14:10:53;;;;;;;;;3.00;3.00;;;;;35.95;41.93;99089.63;6295908;27;96772;-63
2023/08/12 14:13:58;;;;;;;;;5.00;4.00;;;;;35.98;42.77;99090.84;6293077;27;96377;-63
2023/08/12 14:17:01;;;;;;;;;3.60;3.00;;;;;35.96;43.76;99088.44;6286818;27;96706;-63